createdAt,value
2019-02-27T00:00:11.406Z,24.13
2019-02-27T00:02:44.038Z,24.07
2019-02-27T00:05:13.899Z,21.40
2019-02-27T00:07:43.569Z,17.23
2019-02-27T00:10:13.421Z,23.63
2019-02-27T00:12:43.232Z,20.33
2019-02-27T00:15:13.529Z,23.93
2019-02-27T00:17:44.671Z,23.20
2019-02-27T00:20:15.934Z,23.87
2019-02-27T00:22:47.878Z,24.20
2019-02-27T00:25:17.290Z,26.37
2019-02-27T00:27:49.138Z,20.63
2019-02-27T00:30:18.370Z,25.12
2019-02-27T00:32:50.996Z,20.43
2019-02-27T00:35:21.019Z,21.40
2019-02-27T00:37:52.050Z,22.87
2019-02-27T00:40:22.398Z,23.75
2019-02-27T00:42:54.307Z,22.67
2019-02-27T00:45:23.805Z,24.47
2019-02-27T00:47:53.837Z,24.25
2019-02-27T00:50:23.614Z,21.80
2019-02-27T00:52:54.033Z,24.10
2019-02-27T00:55:26.543Z,22.67
2019-02-27T00:57:56.458Z,19.95
2019-02-27T01:00:26.617Z,25.20
2019-02-27T01:02:56.287Z,24.80
2019-02-27T01:05:26.039Z,23.30
2019-02-27T01:07:55.714Z,25.43
2019-02-27T01:10:25.478Z,23.63
2019-02-27T01:12:58.109Z,25.85
2019-02-27T01:15:27.368Z,29.40
2019-02-27T01:17:57.535Z,29.00
2019-02-27T01:20:27.871Z,26.27
2019-02-27T01:22:57.671Z,31.03
2019-02-27T01:25:27.591Z,27.55
2019-02-27T01:27:57.391Z,28.23
2019-02-27T01:30:27.158Z,27.45
2019-02-27T01:32:57.064Z,25.47
2019-02-27T01:35:26.920Z,23.67
2019-02-27T01:37:56.705Z,23.43
2019-02-27T01:40:26.387Z,27.45
2019-02-27T01:42:57.802Z,26.87
2019-02-27T01:45:27.474Z,19.57
2019-02-27T01:47:57.431Z,22.27
2019-02-27T01:50:40.462Z,24.85
2019-02-27T01:53:10.989Z,24.73
2019-02-27T01:55:40.747Z,22.15
2019-02-27T01:58:10.466Z,25.88
2019-02-27T02:00:41.430Z,24.00
2019-02-27T02:03:13.681Z,26.90
2019-02-27T02:05:42.899Z,26.48
2019-02-27T02:08:14.633Z,31.53
2019-02-27T02:10:45.554Z,26.20
2019-02-27T02:13:32.402Z,26.73
2019-02-27T02:16:26.161Z,22.83
2019-02-27T02:19:25.553Z,29.63
2019-02-27T02:22:14.252Z,26.60
2019-02-27T02:25:17.249Z,25.95
2019-02-27T02:28:23.571Z,25.50
2019-02-27T02:31:41.212Z,26.70
2019-02-27T02:34:28.118Z,24.30
2019-02-27T02:37:33.773Z,24.67
2019-02-27T02:40:22.855Z,29.37
2019-02-27T02:43:46.110Z,25.63
2019-02-27T02:46:32.015Z,26.50
2019-02-27T02:49:11.723Z,27.95
2019-02-27T02:52:06.233Z,27.13
2019-02-27T02:54:49.669Z,22.67
2019-02-27T02:57:36.270Z,28.77
2019-02-27T03:00:37.908Z,26.93
2019-02-27T03:03:42.115Z,21.40
2019-02-27T03:06:26.208Z,28.38
2019-02-27T03:09:30.609Z,29.90
2019-02-27T03:12:37.687Z,25.93
2019-02-27T03:15:28.377Z,25.05
2019-02-27T03:18:43.789Z,25.97
2019-02-27T03:21:36.241Z,30.50
2019-02-27T03:24:28.246Z,28.10
2019-02-27T03:27:46.092Z,27.25
2019-02-27T03:30:33.943Z,24.95
2019-02-27T03:33:46.827Z,28.25
2019-02-27T03:36:32.211Z,23.75
2019-02-27T03:39:18.022Z,25.77
2019-02-27T03:42:13.378Z,25.27
2019-02-27T03:45:06.450Z,24.23
2019-02-27T03:48:20.414Z,24.13
2019-02-27T03:50:57.510Z,28.60
2019-02-27T03:54:01.791Z,24.30
2019-02-27T03:56:43.556Z,24.93
2019-02-27T03:59:35.038Z,24.13
2019-02-27T04:02:30.394Z,24.13
2019-02-27T04:05:46.274Z,28.03
2019-02-27T04:08:44.800Z,27.45
2019-02-27T04:11:12.017Z,26.83
2019-02-27T04:13:41.680Z,22.97
2019-02-27T04:16:11.384Z,25.68
2019-02-27T04:18:39.873Z,26.63
2019-02-27T04:21:10.594Z,23.47
2019-02-27T04:23:40.510Z,25.57
2019-02-27T04:26:10.372Z,26.95
2019-02-27T04:28:40.055Z,29.73
2019-02-27T04:31:09.754Z,28.33
2019-02-27T04:33:39.644Z,29.18
2019-02-27T04:36:12.488Z,25.13
2019-02-27T04:38:40.983Z,27.43
2019-02-27T04:41:10.853Z,28.70
2019-02-27T04:43:40.532Z,26.95
2019-02-27T04:46:10.487Z,27.50
2019-02-27T04:48:40.778Z,26.48
2019-02-27T04:51:10.491Z,29.37
2019-02-27T04:53:40.862Z,25.95
2019-02-27T04:56:11.944Z,24.98
2019-02-27T04:58:43.179Z,26.73
2019-02-27T05:01:13.796Z,27.27
2019-02-27T05:03:43.576Z,28.47
2019-02-27T05:06:14.547Z,29.63
2019-02-27T05:08:45.330Z,27.87
2019-02-27T05:11:15.055Z,27.13
2019-02-27T05:13:44.808Z,30.83
2019-02-27T05:16:14.892Z,31.10
2019-02-27T05:18:44.854Z,25.25
2019-02-27T05:21:18.974Z,24.37
2019-02-27T05:23:45.957Z,28.97
2019-02-27T05:26:15.745Z,25.75
2019-02-27T05:28:45.723Z,28.00
2019-02-27T05:31:18.280Z,31.97
2019-02-27T05:33:47.341Z,28.93
2019-02-27T05:36:17.741Z,26.13
2019-02-27T05:38:47.420Z,27.77
2019-02-27T05:41:17.117Z,30.77
2019-02-27T05:43:48.523Z,31.10
2019-02-27T05:46:18.715Z,28.80
2019-02-27T05:48:50.857Z,25.80
2019-02-27T05:51:20.057Z,25.73
2019-02-27T05:53:49.741Z,25.17
2019-02-27T05:56:19.753Z,36.23
2019-02-27T05:58:50.049Z,36.10
2019-02-27T06:01:19.735Z,35.33
2019-02-27T06:03:52.245Z,25.67
2019-02-27T06:06:21.379Z,31.80
2019-02-27T06:08:51.051Z,28.07
2019-02-27T06:11:20.946Z,23.23
2019-02-27T06:13:50.713Z,23.03
2019-02-27T06:16:20.739Z,25.77
2019-02-27T06:18:50.414Z,23.43
2019-02-27T06:21:20.093Z,26.33
2019-02-27T06:23:49.776Z,24.50
2019-02-27T06:26:19.457Z,24.97
2019-02-27T06:28:49.159Z,23.73
2019-02-27T06:31:18.953Z,25.33
2019-02-27T06:33:48.985Z,31.53
2019-02-27T06:36:19.015Z,32.63
2019-02-27T06:38:48.719Z,32.58
2019-02-27T06:41:18.838Z,30.75
2019-02-27T06:43:48.871Z,28.47
2019-02-27T06:46:20.025Z,32.03
2019-02-27T06:48:49.945Z,29.05
2019-02-27T06:51:19.618Z,24.70
2019-02-27T06:53:49.302Z,29.70
2019-02-27T06:56:19.250Z,27.77
2019-02-27T06:58:50.741Z,28.83
2019-02-27T07:01:20.346Z,29.00
2019-02-27T07:03:50.410Z,30.00
2019-02-27T07:06:21.661Z,32.87
2019-02-27T07:08:51.486Z,32.75
2019-02-27T07:11:21.257Z,39.38
2019-02-27T07:13:51.773Z,43.27
2019-02-27T07:16:22.889Z,35.90
2019-02-27T07:18:52.844Z,29.37
2019-02-27T07:21:22.783Z,29.90
2019-02-27T07:23:57.583Z,27.13
2019-02-27T07:26:23.895Z,34.27
2019-02-27T07:28:54.248Z,26.10
2019-02-27T07:31:24.257Z,28.77
2019-02-27T07:33:54.207Z,28.93
2019-02-27T07:36:24.059Z,34.73
2019-02-27T07:38:54.346Z,41.00
2019-02-27T07:41:25.475Z,41.15
2019-02-27T07:43:56.226Z,38.90
2019-02-27T07:46:25.919Z,35.75
2019-02-27T07:48:56.715Z,40.13
2019-02-27T07:51:26.951Z,41.68
2019-02-27T07:53:57.663Z,29.53
2019-02-27T07:56:27.329Z,28.83
2019-02-27T07:58:57.301Z,27.00
2019-02-27T08:01:26.986Z,30.30
2019-02-27T08:03:56.717Z,26.13
2019-02-27T08:06:26.386Z,25.93
2019-02-27T08:08:57.182Z,28.20
2019-02-27T08:11:27.403Z,27.43
2019-02-27T08:13:57.072Z,31.65
2019-02-27T08:16:26.737Z,26.23
2019-02-27T08:18:56.405Z,26.87
2019-02-27T08:21:26.060Z,23.60
2019-02-27T08:23:55.810Z,27.47
2019-02-27T08:26:25.470Z,24.50
2019-02-27T08:28:55.403Z,27.23
2019-02-27T08:31:27.919Z,28.62
2019-02-27T08:33:56.803Z,28.15
2019-02-27T08:36:26.530Z,24.53
2019-02-27T08:38:56.444Z,26.67
2019-02-27T08:41:26.101Z,24.60
2019-02-27T08:43:56.134Z,27.87
2019-02-27T08:46:26.153Z,25.13
2019-02-27T08:48:55.863Z,26.73
2019-02-27T08:51:25.871Z,28.52
2019-02-27T08:53:59.062Z,24.33
2019-02-27T08:56:26.901Z,26.60
2019-02-27T08:58:56.580Z,23.23
2019-02-27T09:01:26.557Z,27.80
2019-02-27T09:03:57.254Z,28.30
2019-02-27T09:06:27.517Z,30.37
2019-02-27T09:08:57.857Z,29.93
2019-02-27T09:11:27.520Z,26.13
2019-02-27T09:13:57.613Z,26.43
2019-02-27T09:16:27.368Z,26.03
2019-02-27T09:18:57.279Z,31.00
2019-02-27T09:21:28.024Z,27.43
2019-02-27T09:23:58.512Z,25.37
2019-02-27T09:26:28.168Z,29.07
2019-02-27T09:28:57.846Z,25.83
2019-02-27T09:31:27.761Z,27.95
2019-02-27T09:33:57.683Z,25.90
2019-02-27T09:36:27.421Z,25.73
2019-02-27T09:38:57.742Z,27.50
2019-02-27T09:41:27.590Z,20.30
2019-02-27T09:43:58.574Z,26.03
2019-02-27T09:46:29.681Z,22.37
2019-02-27T09:48:59.375Z,27.97
2019-02-27T09:51:29.034Z,25.72
2019-02-27T09:53:58.774Z,27.80
2019-02-27T09:56:29.216Z,31.37
2019-02-27T09:58:59.493Z,34.63
2019-02-27T10:01:34.453Z,31.90
2019-02-27T10:04:00.826Z,26.60
2019-02-27T10:06:30.760Z,23.57
2019-02-27T10:09:00.489Z,30.30
2019-02-27T10:11:31.789Z,29.67
2019-02-27T10:14:01.728Z,27.02
2019-02-27T10:16:34.663Z,25.47
2019-02-27T10:19:02.759Z,26.27
2019-02-27T10:21:32.441Z,26.40
2019-02-27T10:24:04.542Z,27.20
2019-02-27T10:26:33.752Z,28.27
2019-02-27T10:29:03.767Z,26.77
2019-02-27T10:31:33.445Z,26.20
2019-02-27T10:34:04.077Z,21.90
2019-02-27T10:36:38.006Z,22.43
2019-02-27T10:39:06.987Z,24.73
2019-02-27T10:41:37.428Z,23.80
2019-02-27T10:44:07.094Z,18.23
2019-02-27T10:46:37.042Z,19.87
2019-02-27T10:49:06.697Z,23.43
2019-02-27T10:51:36.404Z,16.07
2019-02-27T10:54:06.061Z,19.27
2019-02-27T10:56:35.986Z,14.30
2019-02-27T10:59:05.719Z,18.20
2019-02-27T11:01:37.075Z,13.93
2019-02-27T11:04:06.692Z,12.55
2019-02-27T11:06:38.328Z,14.10
2019-02-27T11:09:22.066Z,15.50
2019-02-27T11:11:53.955Z,12.37
2019-02-27T11:14:23.741Z,14.53
2019-02-27T11:16:54.720Z,12.28
2019-02-27T11:19:24.372Z,12.68
2019-02-27T11:21:54.372Z,8.00
2019-02-27T11:24:24.756Z,12.23
2019-02-27T11:26:56.814Z,8.18
2019-02-27T11:29:26.495Z,10.23
2019-02-27T11:31:56.177Z,9.93
2019-02-27T11:34:26.808Z,13.03
2019-02-27T11:36:56.722Z,6.93
2019-02-27T11:39:26.387Z,11.85
2019-02-27T11:41:56.071Z,10.78
2019-02-27T11:44:25.808Z,14.90
2019-02-27T11:46:58.950Z,13.97
2019-02-27T11:49:28.064Z,16.05
2019-02-27T11:51:57.987Z,12.60
2019-02-27T11:54:27.953Z,8.53
2019-02-27T11:56:58.601Z,13.03
2019-02-27T11:59:28.495Z,12.20
2019-02-27T12:01:58.236Z,7.90
2019-02-27T12:04:27.904Z,10.95
2019-02-27T12:06:57.581Z,12.10
2019-02-27T12:09:27.538Z,12.20
2019-02-27T12:11:57.679Z,12.63
2019-02-27T12:14:28.322Z,11.40
2019-02-27T12:16:58.943Z,13.55
2019-02-27T12:19:28.661Z,15.80
2019-02-27T12:22:00.288Z,10.67
2019-02-27T12:24:30.299Z,9.97
2019-02-27T12:27:00.247Z,12.97
2019-02-27T12:29:30.170Z,13.67
2019-02-27T12:31:59.846Z,10.93
2019-02-27T12:34:29.523Z,13.07
2019-02-27T12:36:59.452Z,13.32
2019-02-27T12:39:29.478Z,12.05
2019-02-27T12:41:59.151Z,11.13
2019-02-27T12:44:28.818Z,14.67
2019-02-27T12:46:58.554Z,13.17
2019-02-27T12:49:28.226Z,9.20
2019-02-27T12:51:57.887Z,7.75
2019-02-27T12:54:27.596Z,6.67
2019-02-27T12:56:57.219Z,8.43
2019-02-27T12:59:26.871Z,8.17
2019-02-27T13:01:56.579Z,8.85
2019-02-27T13:04:26.233Z,9.93
2019-02-27T13:06:56.146Z,11.10
2019-02-27T13:09:25.802Z,9.53
2019-02-27T13:11:55.475Z,9.83
2019-02-27T13:14:25.394Z,9.30
2019-02-27T13:16:55.080Z,8.43
2019-02-27T13:19:25.001Z,9.73
2019-02-27T13:21:55.055Z,8.38
2019-02-27T13:24:25.499Z,9.50
2019-02-27T13:26:55.160Z,10.47
2019-02-27T13:29:24.820Z,12.10
2019-02-27T13:31:56.495Z,10.93
2019-02-27T13:34:25.847Z,14.83
2019-02-27T13:36:55.782Z,11.35
2019-02-27T13:39:26.245Z,12.18
2019-02-27T13:41:56.241Z,13.70
2019-02-27T13:44:25.981Z,10.87
2019-02-27T13:46:56.982Z,13.60
2019-02-27T13:49:27.873Z,13.00
2019-02-27T13:51:57.558Z,12.50
2019-02-27T13:54:28.263Z,15.83
2019-02-27T13:56:57.937Z,13.27
2019-02-27T13:59:27.913Z,12.40
2019-02-27T14:02:00.690Z,14.60
2019-02-27T14:04:29.485Z,12.57
2019-02-27T14:06:59.159Z,10.03
2019-02-27T14:09:29.129Z,11.60
2019-02-27T14:11:59.418Z,10.97
2019-02-27T14:14:29.115Z,13.47
2019-02-27T14:16:58.828Z,13.97
2019-02-27T14:19:31.440Z,10.73
2019-02-27T14:22:01.462Z,10.63
2019-02-27T14:24:31.196Z,12.37
2019-02-27T14:27:01.273Z,8.43
2019-02-27T14:29:31.319Z,8.07
2019-02-27T14:32:00.984Z,7.87
2019-02-27T14:34:30.639Z,8.83
2019-02-27T14:37:00.570Z,13.43
2019-02-27T14:39:30.523Z,6.62
2019-02-27T14:42:00.179Z,5.92
2019-02-27T14:44:31.593Z,10.40
2019-02-27T14:47:01.223Z,6.03
2019-02-27T14:49:30.878Z,14.53
2019-02-27T14:52:00.545Z,4.62
2019-02-27T14:54:31.240Z,6.63
2019-02-27T14:57:00.984Z,7.20
2019-02-27T14:59:31.486Z,5.40
2019-02-27T15:02:01.286Z,6.67
2019-02-27T15:04:32.275Z,4.30
2019-02-27T15:07:03.388Z,4.13
2019-02-27T15:09:36.061Z,3.67
2019-02-27T15:12:04.779Z,7.23
2019-02-27T15:14:34.448Z,5.63
2019-02-27T15:17:04.446Z,5.53
2019-02-27T15:19:35.472Z,4.57
2019-02-27T15:22:05.301Z,5.30
2019-02-27T15:24:35.834Z,4.97
2019-02-27T15:27:05.898Z,4.13
2019-02-27T15:29:36.931Z,3.50
2019-02-27T15:32:06.763Z,6.17
2019-02-27T15:34:36.518Z,6.60
2019-02-27T15:37:06.896Z,6.13
2019-02-27T15:39:36.550Z,4.40
2019-02-27T15:42:09.504Z,7.07
2019-02-27T15:44:37.930Z,5.53
2019-02-27T15:47:07.621Z,5.67
2019-02-27T15:49:37.367Z,5.43
2019-02-27T15:52:07.814Z,4.23
2019-02-27T15:54:38.619Z,4.87
2019-02-27T15:57:08.370Z,10.17
2019-02-27T15:59:41.739Z,9.97
2019-02-27T16:02:09.884Z,5.07
2019-02-27T16:04:39.539Z,4.72
2019-02-27T16:07:11.214Z,6.63
2019-02-27T16:09:40.565Z,5.73
2019-02-27T16:12:10.378Z,6.03
2019-02-27T16:14:40.269Z,5.97
2019-02-27T16:17:11.442Z,5.25
2019-02-27T16:19:42.138Z,8.13
2019-02-27T16:22:13.325Z,6.97
2019-02-27T16:24:43.990Z,5.40
2019-02-27T16:27:14.874Z,6.42
2019-02-27T16:29:44.533Z,7.95
2019-02-27T16:32:14.450Z,9.20
2019-02-27T16:34:44.141Z,8.00
2019-02-27T16:37:13.804Z,7.83
2019-02-27T16:39:45.773Z,6.87
2019-02-27T16:42:15.315Z,10.67
2019-02-27T16:44:45.289Z,7.10
2019-02-27T16:47:15.512Z,8.47
2019-02-27T16:49:47.265Z,6.87
2019-02-27T16:52:18.372Z,8.33
2019-02-27T16:54:48.049Z,6.08
2019-02-27T16:57:21.057Z,8.83
2019-02-27T16:59:49.080Z,7.23
2019-02-27T17:02:18.995Z,8.43
2019-02-27T17:04:48.762Z,10.00
2019-02-27T17:07:18.418Z,10.67
2019-02-27T17:09:48.086Z,15.08
2019-02-27T17:12:17.737Z,10.80
2019-02-27T17:14:48.870Z,11.60
2019-02-27T17:17:19.490Z,14.87
2019-02-27T17:19:49.196Z,9.87
2019-02-27T17:22:18.879Z,10.27
2019-02-27T17:24:48.586Z,10.10
2019-02-27T17:27:18.649Z,10.87
2019-02-27T17:29:48.437Z,11.25
2019-02-27T17:32:18.581Z,12.50
2019-02-27T17:34:49.591Z,12.20
2019-02-27T17:37:19.247Z,12.27
2019-02-27T17:39:49.640Z,13.73
2019-02-27T17:42:19.607Z,14.53
2019-02-27T17:44:49.333Z,18.03
2019-02-27T17:47:19.356Z,17.30
2019-02-27T17:49:49.021Z,16.23
2019-02-27T17:52:18.670Z,15.30
2019-02-27T17:54:48.336Z,18.98
2019-02-27T17:57:17.989Z,15.18
2019-02-27T17:59:47.650Z,19.60
2019-02-27T18:02:17.380Z,18.93
2019-02-27T18:04:51.019Z,14.47
2019-02-27T18:07:18.448Z,15.70
2019-02-27T18:09:48.108Z,14.50
2019-02-27T18:12:18.183Z,10.40
2019-02-27T18:14:47.917Z,10.50
2019-02-27T18:17:17.727Z,16.63
2019-02-27T18:19:50.312Z,17.13
2019-02-27T18:22:19.109Z,16.07
2019-02-27T18:24:48.783Z,13.67
2019-02-27T18:27:18.450Z,13.73
2019-02-27T18:29:48.140Z,11.73
2019-02-27T18:32:17.976Z,11.57
2019-02-27T18:34:47.649Z,13.50
2019-02-27T18:37:19.084Z,16.87
2019-02-27T18:39:48.777Z,13.50
2019-02-27T18:42:20.601Z,12.60
2019-02-27T18:44:50.933Z,15.97
2019-02-27T18:47:20.727Z,17.67
2019-02-27T18:49:52.307Z,24.97
2019-02-27T18:52:23.590Z,18.87
2019-02-27T18:54:54.729Z,14.90
2019-02-27T18:57:25.130Z,16.80
2019-02-27T18:59:54.801Z,14.80
2019-02-27T19:02:24.523Z,14.93
2019-02-27T19:04:54.662Z,22.43
2019-02-27T19:07:24.370Z,23.93
2019-02-27T19:09:54.052Z,26.43
2019-02-27T19:12:28.373Z,26.30
2019-02-27T19:14:56.709Z,25.90
2019-02-27T19:17:29.044Z,24.80
2019-02-27T19:19:58.034Z,24.23
2019-02-27T19:22:28.260Z,24.63
2019-02-27T19:25:00.194Z,18.73
2019-02-27T19:27:29.367Z,23.73
2019-02-27T19:29:59.044Z,23.03
2019-02-27T19:32:28.881Z,22.87
2019-02-27T19:34:58.622Z,24.27
2019-02-27T19:37:28.281Z,20.83
2019-02-27T19:39:57.947Z,18.37
2019-02-27T19:42:27.975Z,19.07
2019-02-27T19:45:03.785Z,24.35
2019-02-27T19:47:29.138Z,25.80
2019-02-27T19:49:58.882Z,30.13
2019-02-27T19:52:29.697Z,30.53
2019-02-27T19:54:59.383Z,38.93
2019-02-27T19:57:29.045Z,63.80
2019-02-27T19:59:59.741Z,60.48
2019-02-27T20:02:29.538Z,53.78
2019-02-27T20:04:59.277Z,45.53
2019-02-27T20:07:28.934Z,46.20
2019-02-27T20:09:58.607Z,41.53
2019-02-27T20:12:28.271Z,41.07
2019-02-27T20:14:58.015Z,41.28
2019-02-27T20:17:32.815Z,42.63
2019-02-27T20:20:00.610Z,43.23
2019-02-27T20:22:30.897Z,42.07
2019-02-27T20:25:00.883Z,33.43
2019-02-27T20:27:32.163Z,28.70
2019-02-27T20:30:01.825Z,24.93
2019-02-27T20:32:31.660Z,18.10
2019-02-27T20:35:01.501Z,14.90
2019-02-27T20:37:31.358Z,10.53
2019-02-27T20:40:02.076Z,14.20
2019-02-27T20:42:33.361Z,12.35
2019-02-27T20:45:03.031Z,12.97
2019-02-27T20:47:33.019Z,12.50
2019-02-27T20:50:02.950Z,11.57
2019-02-27T20:52:32.611Z,10.35
2019-02-27T20:55:02.663Z,10.15
2019-02-27T20:57:32.336Z,11.17
2019-02-27T21:00:02.827Z,7.23
2019-02-27T21:02:33.697Z,6.67
2019-02-27T21:05:03.420Z,10.35
2019-02-27T21:07:34.858Z,9.23
2019-02-27T21:10:05.029Z,9.35
2019-02-27T21:12:37.358Z,11.03
2019-02-27T21:15:06.423Z,8.88
2019-02-27T21:17:36.138Z,6.77
2019-02-27T21:20:11.199Z,8.50
2019-02-27T21:22:37.375Z,7.07
2019-02-27T21:25:07.619Z,10.60
2019-02-27T21:27:37.437Z,11.70
2019-02-27T21:30:10.935Z,6.73
2019-02-27T21:32:40.736Z,6.78
2019-02-27T21:35:10.881Z,7.50
2019-02-27T21:37:44.802Z,7.57
2019-02-27T21:40:13.911Z,6.13
2019-02-27T21:42:43.704Z,6.23
2019-02-27T21:45:15.878Z,8.23
2019-02-27T21:47:45.803Z,8.70
2019-02-27T21:50:16.849Z,7.15
2019-02-27T21:52:46.500Z,7.03
2019-02-27T21:55:16.318Z,7.60
2019-02-27T21:57:46.018Z,7.53
2019-02-27T22:00:19.114Z,6.47
2019-02-27T22:02:49.138Z,8.03
2019-02-27T22:05:19.763Z,8.53
2019-02-27T22:07:49.603Z,8.03
2019-02-27T22:10:20.469Z,7.22
2019-02-27T22:12:50.277Z,14.03
2019-02-27T22:15:23.235Z,8.87
2019-02-27T22:17:52.913Z,9.80
2019-02-27T22:20:25.938Z,8.23
2019-02-27T22:22:54.409Z,8.55
2019-02-27T22:25:30.167Z,10.70
2019-02-27T22:27:58.381Z,10.27
2019-02-27T22:30:27.532Z,8.63
2019-02-27T22:32:57.516Z,6.50
2019-02-27T22:35:27.229Z,7.97
2019-02-27T22:37:57.251Z,10.68
2019-02-27T22:40:26.916Z,7.30
2019-02-27T22:42:56.655Z,9.80
2019-02-27T22:45:26.499Z,9.15
2019-02-27T22:47:57.615Z,7.17
2019-02-27T22:50:27.310Z,8.37
2019-02-27T22:52:56.964Z,8.47
2019-02-27T22:55:26.701Z,10.80
2019-02-27T22:57:56.533Z,9.83
2019-02-27T23:01:01.655Z,9.43
2019-02-27T23:03:36.216Z,9.38
2019-02-27T23:06:09.199Z,9.80
2019-02-27T23:08:38.158Z,7.80
2019-02-27T23:11:08.826Z,8.53
2019-02-27T23:13:38.633Z,7.17
2019-02-27T23:16:08.620Z,10.75
2019-02-27T23:18:40.304Z,7.20
2019-02-27T23:21:10.273Z,9.00
2019-02-27T23:23:39.985Z,7.70
2019-02-27T23:26:09.645Z,9.65
2019-02-27T23:28:39.554Z,7.63
2019-02-27T23:31:09.368Z,8.83
2019-02-27T23:33:39.016Z,7.67
2019-02-27T23:36:08.681Z,9.23
2019-02-27T23:38:38.412Z,7.60
2019-02-27T23:41:08.070Z,7.80
2019-02-27T23:43:37.825Z,6.35
2019-02-27T23:46:07.644Z,7.67
2019-02-27T23:48:37.933Z,9.40
2019-02-27T23:51:07.636Z,6.83
2019-02-27T23:53:37.619Z,8.07
2019-02-27T23:56:07.290Z,7.30
2019-02-27T23:58:37.026Z,6.23
